Time;durP1;ratioP1;P1;durP2;ratioP2;P2;SDS_P1;SDS_P2;PMS_P1;PMS_P2;Temp;Humidity;BMP_temperature;BMP_pressure;BME280_temperature;BME280_humidity;BME280_pressure;Samples;Min_cycle;Max_cycle;Signal;HPM_P1;HPM_P2
2021/04/01 00:02:06;;;;;;;5.40;2.53;;;12.50;94.10;;;;;;5012114;28;20449;-46
2021/04/01 00:04:37;;;;;;;5.17;3.17;;;12.70;93.90;;;;;;5011603;28;20458;-47
2021/04/01 00:07:04;;;;;;;9.33;3.27;;;12.70;93.50;;;;;;5011696;28;20461;-47
2021/04/01 00:09:30;;;;;;;10.80;3.40;;;12.50;93.60;;;;;;5011091;28;20534;-47
2021/04/01 00:11:57;;;;;;;6.90;3.10;;;12.30;93.50;;;;;;5010705;28;20508;-47
2021/04/01 00:14:25;;;;;;;5.00;2.73;;;12.40;93.60;;;;;;5010907;28;20453;-47
2021/04/01 00:16:52;;;;;;;6.10;3.23;;;12.50;93.50;;;;;;5011407;28;20486;-47
2021/04/01 00:19:18;;;;;;;5.40;3.47;;;12.30;93.60;;;;;;5010892;28;20454;-47
2021/04/01 00:21:46;;;;;;;5.83;2.97;;;12.30;93.90;;;;;;5011491;28;20468;-47
2021/04/01 00:24:12;;;;;;;7.63;2.90;;;12.40;93.90;;;;;;5011645;28;20454;-47
2021/04/01 00:26:39;;;;;;;8.70;3.83;;;12.40;93.40;;;;;;5011483;28;20465;-47
2021/04/01 00:29:05;;;;;;;3.10;2.80;;;12.50;93.40;;;;;;5004435;28;20524;-47
2021/04/01 00:31:32;;;;;;;5.40;2.83;;;12.40;93.40;;;;;;5004243;28;20480;-47
2021/04/01 00:33:58;;;;;;;11.10;3.33;;;12.50;93.20;;;;;;5010755;28;20523;-46
2021/04/01 00:36:25;;;;;;;4.33;2.90;;;12.40;93.30;;;;;;5010696;28;20481;-47
2021/04/01 00:38:52;;;;;;;11.97;3.30;;;12.40;93.30;;;;;;5010480;28;20840;-46
2021/04/01 00:41:19;;;;;;;2.83;2.10;;;12.60;92.80;;;;;;4996622;28;20997;-46
2021/04/01 00:43:45;;;;;;;4.10;2.20;;;12.70;92.40;;;;;;4991699;28;20442;-46
2021/04/01 00:46:12;;;;;;;5.80;2.70;;;12.90;91.90;;;;;;5005458;28;20469;-46
2021/04/01 00:48:39;;;;;;;4.73;2.43;;;12.90;91.90;;;;;;5008330;28;20513;-46
2021/04/01 00:51:05;;;;;;;8.83;2.60;;;13.00;92.00;;;;;;5005969;28;20450;-47
2021/04/01 00:53:32;;;;;;;4.60;2.70;;;13.00;92.00;;;;;;5011308;28;20489;-47
2021/04/01 00:56:00;;;;;;;7.80;2.50;;;13.00;91.90;;;;;;5011259;28;20543;-46
2021/04/01 00:58:28;;;;;;;8.60;2.90;;;12.80;92.00;;;;;;5010905;28;20454;-46
2021/04/01 01:01:09;;;;;;;5.53;3.37;;;12.70;92.40;;;;;;5010889;28;20553;-46
2021/04/01 01:03:36;;;;;;;4.80;2.83;;;12.60;92.50;;;;;;5010739;28;20460;-46
2021/04/01 01:06:03;;;;;;;5.30;3.20;;;12.60;92.60;;;;;;5009707;28;20472;-46
2021/04/01 01:08:29;;;;;;;4.80;2.90;;;12.30;92.80;;;;;;4996833;28;20454;-47
2021/04/01 01:10:56;;;;;;;5.40;2.90;;;12.20;93.10;;;;;;5009622;28;20504;-47
2021/04/01 01:13:24;;;;;;;8.80;3.10;;;12.30;93.20;;;;;;5008980;28;20998;-46
2021/04/01 01:15:50;;;;;;;5.17;2.90;;;12.10;93.30;;;;;;5010517;28;20488;-47
2021/04/01 01:18:17;;;;;;;9.80;3.47;;;12.20;93.30;;;;;;4998295;28;21136;-46
2021/04/01 01:20:45;;;;;;;3.87;2.73;;;12.30;93.20;;;;;;5008759;28;20461;-46
2021/04/01 01:23:12;;;;;;;5.80;2.73;;;12.30;92.60;;;;;;5010838;28;20446;-46
2021/04/01 01:25:41;;;;;;;3.83;2.43;;;12.10;92.80;;;;;;5009998;28;20470;-47
2021/04/01 01:28:07;;;;;;;3.87;2.03;;;12.30;92.50;;;;;;5009687;28;20464;-46
2021/04/01 01:30:34;;;;;;;6.60;2.20;;;12.40;92.30;;;;;;5010432;28;20503;-46
2021/04/01 01:33:03;;;;;;;2.50;1.90;;;12.20;92.10;;;;;;5010282;28;20564;-47
2021/04/01 01:35:32;;;;;;;5.43;2.03;;;12.30;91.90;;;;;;5010033;28;20474;-46
2021/04/01 01:38:02;;;;;;;6.70;2.07;;;12.30;91.90;;;;;;5009542;28;20480;-46
2021/04/01 01:40:30;;;;;;;7.07;2.67;;;12.40;91.80;;;;;;5010564;28;20456;-46
2021/04/01 01:43:00;;;;;;;3.73;2.10;;;12.50;91.30;;;;;;5010136;28;20457;-46
2021/04/01 01:45:27;;;;;;;5.77;1.90;;;12.50;91.60;;;;;;5010254;28;20469;-47
2021/04/01 01:47:55;;;;;;;3.53;1.97;;;12.50;91.60;;;;;;5003903;28;20987;-46
2021/04/01 01:50:24;;;;;;;5.63;2.00;;;12.50;91.40;;;;;;5010507;28;20453;-47
2021/04/01 01:52:51;;;;;;;4.07;2.30;;;12.50;91.50;;;;;;5010521;28;20481;-47
2021/04/01 01:55:18;;;;;;;2.60;2.17;;;12.60;91.30;;;;;;5010005;28;20485;-46
2021/04/01 01:57:44;;;;;;;7.50;2.43;;;12.40;91.50;;;;;;5004012;28;20451;-46
2021/04/01 02:00:16;;;;;;;5.13;2.30;;;12.10;91.70;;;;;;5006991;28;20511;-46
2021/04/01 02:02:50;;;;;;;4.37;2.10;;;12.00;91.80;;;;;;5010383;28;20453;-47
2021/04/01 02:05:17;;;;;;;7.03;2.77;;;12.00;92.10;;;;;;5010279;28;20540;-47
2021/04/01 02:07:44;;;;;;;2.90;1.90;;;11.90;92.20;;;;;;5008944;28;21009;-47
2021/04/01 02:10:14;;;;;;;3.03;2.23;;;11.80;92.50;;;;;;5010060;28;20450;-47
2021/04/01 02:12:41;;;;;;;7.37;2.77;;;11.90;92.10;;;;;;5010027;28;20489;-47
2021/04/01 02:15:12;;;;;;;6.90;2.87;;;11.80;92.20;;;;;;5010001;28;20488;-47
2021/04/01 02:17:39;;;;;;;5.43;2.20;;;11.70;92.50;;;;;;5004220;28;20809;-47
2021/04/01 02:20:07;;;;;;;3.93;2.17;;;11.80;92.20;;;;;;4990472;28;20473;-47
2021/04/01 02:22:34;;;;;;;5.87;2.20;;;11.80;92.50;;;;;;4995183;28;20948;-47
2021/04/01 02:25:01;;;;;;;5.80;2.60;;;11.90;92.40;;;;;;5009698;28;21045;-47
2021/04/01 02:27:27;;;;;;;3.60;2.27;;;12.00;92.20;;;;;;5008846;28;20453;-47
2021/04/01 02:29:54;;;;;;;7.20;2.10;;;12.10;92.10;;;;;;5010187;28;20454;-47
2021/04/01 02:32:21;;;;;;;4.80;2.30;;;12.00;91.90;;;;;;5009991;28;20489;-47
2021/04/01 02:34:48;;;;;;;6.97;2.30;;;11.80;92.40;;;;;;5009681;28;20447;-46
2021/04/01 02:37:15;;;;;;;4.50;2.23;;;11.70;92.40;;;;;;5010174;28;20289;-47
2021/04/01 02:39:42;;;;;;;5.17;2.33;;;11.70;92.40;;;;;;5010271;28;20449;-47
2021/04/01 02:42:10;;;;;;;5.30;2.50;;;11.70;92.70;;;;;;5014027;28;20449;-46
2021/04/01 02:44:39;;;;;;;4.35;2.72;;;11.80;92.60;;;;;;5011946;28;20447;-47
2021/04/01 02:47:06;;;;;;;5.00;2.60;;;11.90;92.50;;;;;;5012616;28;20202;-46
2021/04/01 02:49:33;;;;;;;6.20;2.60;;;11.60;92.60;;;;;;5002856;28;20540;-47
2021/04/01 02:52:00;;;;;;;3.20;2.33;;;11.70;92.70;;;;;;5013612;28;21220;-47
2021/04/01 02:54:27;;;;;;;4.43;2.67;;;11.40;93.10;;;;;;5013257;28;20464;-47
2021/04/01 02:56:54;;;;;;;3.17;2.10;;;11.50;93.10;;;;;;5013291;28;20476;-47
2021/04/01 02:59:20;;;;;;;5.30;2.70;;;11.40;93.10;;;;;;5013043;28;20453;-46
2021/04/01 03:01:47;;;;;;;3.33;2.43;;;11.30;93.20;;;;;;5013162;28;20980;-47
2021/04/01 03:04:13;;;;;;;6.87;2.33;;;11.10;93.30;;;;;;5013818;28;20457;-47
2021/04/01 03:06:41;;;;;;;4.50;2.30;;;11.40;93.10;;;;;;5013181;28;21058;-47
2021/04/01 03:09:07;;;;;;;3.00;2.20;;;11.20;93.20;;;;;;5012226;28;20837;-47
2021/04/01 03:11:34;;;;;;;3.97;2.63;;;11.20;93.30;;;;;;5013161;28;20460;-47
2021/04/01 03:14:00;;;;;;;10.33;2.43;;;11.20;93.40;;;;;;5013172;28;20485;-47
2021/04/01 03:16:27;;;;;;;4.47;2.40;;;11.10;93.30;;;;;;5059906;22;20629;-50
2021/04/01 03:18:53;;;;;;;5.03;2.20;;;11.00;93.30;;;;;;5049120;28;20456;-50
2021/04/01 03:21:20;;;;;;;4.40;2.00;;;11.00;93.20;;;;;;5048768;28;20452;-49
2021/04/01 03:23:47;;;;;;;3.80;2.17;;;11.20;92.90;;;;;;5052872;28;21142;-50
2021/04/01 03:26:14;;;;;;;3.50;2.23;;;11.30;92.20;;;;;;5041434;28;20846;-49
2021/04/01 03:28:40;;;;;;;5.60;2.10;;;11.30;92.40;;;;;;5032326;28;20449;-49
2021/04/01 03:31:07;;;;;;;3.40;2.07;;;11.50;92.30;;;;;;5015088;28;20476;-50
2021/04/01 03:33:33;;;;;;;8.73;2.33;;;11.50;92.10;;;;;;5012890;28;20489;-50
2021/04/01 03:36:00;;;;;;;6.83;2.63;;;11.60;92.10;;;;;;5012507;28;20477;-49
2021/04/01 03:38:27;;;;;;;5.27;2.63;;;11.60;92.00;;;;;;5021535;28;20478;-50
2021/04/01 03:40:55;;;;;;;10.73;2.50;;;11.70;92.20;;;;;;5032333;28;20444;-50
2021/04/01 03:43:23;;;;;;;7.63;2.57;;;11.30;92.20;;;;;;5031641;28;20481;-50
2021/04/01 03:45:49;;;;;;;3.07;2.50;;;11.10;93.50;;;;;;5031682;28;20494;-50
2021/04/01 03:48:16;;;;;;;6.30;2.57;;;11.20;93.30;;;;;;5022264;28;20460;-50
2021/04/01 03:50:43;;;;;;;4.30;2.67;;;11.20;93.00;;;;;;5018952;28;20452;-49
2021/04/01 03:53:11;;;;;;;6.77;2.70;;;11.30;92.90;;;;;;5032293;28;20488;-49
2021/04/01 03:55:41;;;;;;;3.93;2.90;;;11.40;92.80;;;;;;5031216;28;20479;-49
2021/04/01 03:58:34;;;;;;;5.70;3.20;;;11.40;92.80;;;;;;5012642;28;20535;-49
2021/04/01 04:01:26;;;;;;;6.53;2.60;;;11.30;92.60;;;;;;5029429;28;20457;-49
2021/04/01 04:04:02;;;;;;;5.00;2.70;;;11.10;92.90;;;;;;5032402;28;20448;-49
2021/04/01 04:06:39;;;;;;;6.20;2.43;;;11.00;93.00;;;;;;5030986;28;20567;-49
2021/04/01 04:09:23;;;;;;;3.90;2.23;;;11.00;93.30;;;;;;5030357;28;20449;-49
2021/04/01 04:11:53;;;;;;;3.87;2.73;;;10.90;93.40;;;;;;5035064;28;20502;-49
2021/04/01 04:14:24;;;;;;;6.83;3.50;;;11.00;93.30;;;;;;5032327;28;20452;-49
2021/04/01 04:16:51;;;;;;;6.60;4.20;;;11.10;93.30;;;;;;5022239;28;20551;-48
2021/04/01 04:19:18;;;;;;;4.70;3.40;;;10.90;93.30;;;;;;5029673;28;20457;-49
2021/04/01 04:21:44;;;;;;;7.30;2.90;;;10.80;93.60;;;;;;5031819;28;20479;-49
2021/04/01 04:24:12;;;;;;;4.57;2.67;;;10.80;93.40;;;;;;5031961;28;20448;-49
2021/04/01 04:26:39;;;;;;;4.73;2.20;;;10.80;93.50;;;;;;5023691;28;20852;-48
2021/04/01 04:29:05;;;;;;;3.93;2.90;;;10.70;93.70;;;;;;5013275;28;20453;-50
2021/04/01 04:31:33;;;;;;;3.50;2.30;;;10.70;93.50;;;;;;5011891;28;20449;-49
2021/04/01 04:33:59;;;;;;;3.93;2.53;;;10.60;93.60;;;;;;5011965;28;20522;-49
2021/04/01 04:36:26;;;;;;;6.57;2.80;;;10.60;93.80;;;;;;5020241;28;20996;-50
2021/04/01 04:38:52;;;;;;;5.20;3.00;;;10.30;94.10;;;;;;5034946;28;20867;-49
2021/04/01 04:41:18;;;;;;;5.50;2.73;;;10.20;94.40;;;;;;5035444;28;20453;-50
2021/04/01 04:43:45;;;;;;;10.63;3.63;;;10.30;94.50;;;;;;5026103;28;20445;-49
2021/04/01 04:46:13;;;;;;;7.60;3.30;;;10.20;94.50;;;;;;5028350;28;21102;-48
2021/04/01 04:48:40;;;;;;;3.60;3.00;;;10.20;94.70;;;;;;5030101;28;20445;-48
2021/04/01 04:51:07;;;;;;;6.90;3.47;;;10.20;95.00;;;;;;5014726;28;20942;-50
2021/04/01 04:53:33;;;;;;;6.90;3.53;;;10.10;95.00;;;;;;5019684;28;20481;-50
2021/04/01 04:56:08;;;;;;;6.33;3.30;;;10.10;95.30;;;;;;5021895;28;20519;-50
2021/04/01 04:58:40;;;;;;;8.87;3.10;;;10.10;95.10;;;;;;5033167;28;20451;-49
2021/04/01 05:01:12;;;;;;;4.40;2.50;;;10.00;94.50;;;;;;5013050;28;20438;-49
2021/04/01 05:09:05;;;;;;;4.93;2.50;;;10.80;93.40;;;;;;5027528;28;21043;-49
2021/04/01 05:11:33;;;;;;;7.27;3.60;;;10.80;93.10;;;;;;5024451;28;20468;-50
2021/04/01 05:13:59;;;;;;;5.57;2.80;;;10.70;93.20;;;;;;5030739;28;20547;-51
2021/04/01 05:16:26;;;;;;;4.23;2.40;;;10.60;93.30;;;;;;5025613;28;20477;-50
2021/04/01 05:18:55;;;;;;;4.87;2.57;;;10.60;93.60;;;;;;5011122;28;20446;-50
2021/04/01 05:21:29;;;;;;;7.23;3.03;;;10.50;93.60;;;;;;5011404;28;20507;-50
2021/04/01 05:23:56;;;;;;;10.93;4.97;;;10.50;93.70;;;;;;5011164;28;20449;-49
2021/04/01 05:29:15;;;;;;;8.97;4.27;;;10.30;94.50;;;;;;5030927;28;20487;-50
2021/04/01 05:31:42;;;;;;;8.80;4.13;;;10.10;94.50;;;;;;5030676;28;20487;-50
2021/04/01 05:34:09;;;;;;;10.07;3.87;;;10.20;94.40;;;;;;5028259;28;20911;-49
2021/04/01 05:36:38;;;;;;;3.90;2.97;;;10.30;94.50;;;;;;5027510;28;20556;-49
2021/04/01 05:39:06;;;;;;;8.97;4.20;;;10.40;94.40;;;;;;5023428;28;20450;-49
2021/04/01 05:41:33;;;;;;;6.83;3.50;;;10.40;94.90;;;;;;5029945;28;20448;-50
2021/04/01 05:44:05;;;;;;;7.30;3.27;;;10.40;94.60;;;;;;5030818;28;20452;-50
2021/04/01 05:46:37;;;;;;;4.30;3.17;;;10.50;94.80;;;;;;5025605;28;20478;-49
2021/04/01 05:49:12;;;;;;;8.83;3.37;;;10.70;94.40;;;;;;5024934;28;20453;-50
2021/04/01 05:57:44;;;;;;;6.03;2.60;;;11.10;93.40;;;;;;5018431;28;20442;-50
2021/04/01 06:00:30;;;;;;;7.97;2.50;;;11.60;93.10;;;;;;5021920;28;20476;-50
2021/04/01 06:03:17;;;;;;;10.07;2.80;;;12.10;92.30;;;;;;5031428;28;20493;-50
2021/04/01 06:05:46;;;;;;;5.97;2.40;;;12.70;92.10;;;;;;5017635;28;20525;-51
2021/04/01 06:08:16;;;;;;;5.53;2.40;;;13.10;90.80;;;;;;5010701;28;20488;-50
2021/04/01 06:10:43;;;;;;;5.73;2.77;;;13.70;90.60;;;;;;5010848;28;20460;-50
2021/04/01 06:13:13;;;;;;;5.43;2.53;;;14.10;90.10;;;;;;5014314;28;20994;-50
2021/04/01 06:15:40;;;;;;;4.27;2.60;;;14.60;89.10;;;;;;5026552;28;20570;-50
2021/04/01 06:18:12;;;;;;;3.50;2.60;;;14.90;87.20;;;;;;5033781;28;20460;-50
2021/04/01 06:20:41;;;;;;;5.30;2.73;;;15.50;86.90;;;;;;5033676;28;20881;-51
2021/04/01 06:23:08;;;;;;;3.30;2.43;;;15.70;86.60;;;;;;5034035;28;20449;-51
2021/04/01 06:25:37;;;;;;;5.03;2.30;;;16.00;86.00;;;;;;5022104;28;20500;-50
2021/04/01 06:28:08;;;;;;;8.07;2.70;;;16.20;84.30;;;;;;5014306;28;20461;-50
2021/04/01 06:30:47;;;;;;;6.47;2.43;;;16.60;84.70;;;;;;5015247;28;20453;-50
2021/04/01 06:33:16;;;;;;;5.60;2.80;;;16.80;82.60;;;;;;5015416;28;20861;-51
2021/04/01 06:35:46;;;;;;;6.10;4.50;;;16.90;82.60;;;;;;5026180;28;20483;-51
2021/04/01 06:38:20;;;;;;;4.73;3.00;;;17.00;81.50;;;;;;5025680;28;20531;-51
2021/04/01 06:40:50;;;;;;;12.33;2.60;;;17.20;81.00;;;;;;5014112;28;20460;-50
2021/04/01 06:43:39;;;;;;;8.70;3.17;;;17.20;82.20;;;;;;5039167;28;20941;-50
2021/04/01 06:46:07;;;;;;;6.80;2.97;;;17.50;81.20;;;;;;5022312;28;20553;-50
2021/04/01 06:48:54;;;;;;;7.13;3.20;;;17.80;80.80;;;;;;5025607;28;20545;-50
2021/04/01 06:51:26;;;;;;;14.17;3.27;;;17.90;80.60;;;;;;5033316;28;20532;-50
2021/04/01 06:54:09;;;;;;;17.30;3.40;;;18.30;79.00;;;;;;5032484;28;20571;-51
2021/04/01 06:56:49;;;;;;;9.33;3.30;;;18.50;78.30;;;;;;5014708;28;20481;-50
2021/04/01 06:59:30;;;;;;;4.83;2.80;;;19.10;77.30;;;;;;5020631;28;20463;-50
2021/04/01 07:02:09;;;;;;;5.20;2.60;;;19.50;76.00;;;;;;5029767;28;20453;-51
2021/04/01 07:04:41;;;;;;;6.73;2.70;;;19.70;76.10;;;;;;5021865;28;20456;-50
2021/04/01 07:07:13;;;;;;;14.07;2.90;;;19.30;77.00;;;;;;5027907;28;20476;-51
2021/04/01 07:09:52;;;;;;;14.10;3.37;;;19.20;76.10;;;;;;5013437;28;20465;-50
2021/04/01 07:12:26;;;;;;;6.30;2.73;;;19.40;75.10;;;;;;5023073;28;20449;-51
2021/04/01 07:15:01;;;;;;;6.30;3.17;;;19.50;75.80;;;;;;5032301;28;20505;-50
2021/04/01 07:17:39;;;;;;;5.97;2.90;;;19.80;77.20;;;;;;5027091;28;20566;-51
2021/04/01 07:20:26;;;;;;;5.23;2.43;;;20.10;74.60;;;;;;5032697;28;21003;-50
2021/04/01 07:23:21;;;;;;;8.80;2.90;;;19.30;74.00;;;;;;5032156;28;20441;-50
2021/04/01 07:45:52;;;;;;;5.30;2.80;;;19.70;77.60;;;;;;5031606;28;20478;-52
2021/04/01 07:48:24;;;;;;;6.43;2.20;;;20.10;77.90;;;;;;5024033;28;20498;-51
2021/04/01 07:50:51;;;;;;;5.27;2.70;;;20.50;76.50;;;;;;5031717;28;20459;-51
2021/04/01 07:53:23;;;;;;;3.93;2.30;;;20.60;75.10;;;;;;5031888;28;20472;-51
2021/04/01 08:01:52;;;;;;;8.50;2.60;;;21.50;73.10;;;;;;5004830;28;21009;-50
2021/04/01 08:04:19;;;;;;;5.70;2.33;;;21.60;71.50;;;;;;5031496;28;20452;-52
2021/04/01 08:06:45;;;;;;;11.47;3.10;;;21.40;74.50;;;;;;5030309;28;20481;-50
2021/04/01 08:09:18;;;;;;;15.70;2.87;;;21.30;68.70;;;;;;5031215;28;20456;-51
2021/04/01 08:11:47;;;;;;;6.50;2.40;;;21.10;72.40;;;;;;5031309;28;20452;-51
2021/04/01 08:14:17;;;;;;;7.00;2.07;;;21.40;73.80;;;;;;5031542;28;20484;-51
2021/04/01 08:16:49;;;;;;;3.20;1.90;;;21.60;72.90;;;;;;5029596;28;20484;-50
2021/04/01 08:19:20;;;;;;;4.83;2.33;;;21.60;74.70;;;;;;5031064;28;20453;-51
2021/04/01 08:21:48;;;;;;;5.83;1.97;;;21.40;70.10;;;;;;5031547;28;20480;-50
2021/04/01 08:24:18;;;;;;;12.33;2.60;;;21.10;73.00;;;;;;5031715;28;20842;-51
2021/04/01 08:26:57;;;;;;;3.80;2.37;;;21.50;74.30;;;;;;5030529;28;21130;-51
2021/04/01 08:30:38;;;;;;;9.87;2.40;;;21.10;69.80;;;;;;5031260;28;20547;-50
2021/04/01 08:35:27;;;;;;;6.90;2.30;;;21.80;73.60;;;;;;5029722;28;20460;-50
2021/04/01 08:38:10;;;;;;;6.20;2.20;;;22.20;68.00;;;;;;5030317;28;21010;-51
2021/04/01 08:40:37;;;;;;;2.50;2.30;;;22.60;68.90;;;;;;5031224;28;20448;-51
2021/04/01 08:43:54;;;;;;;4.10;2.63;;;23.10;68.90;;;;;;5030871;28;20472;-51
2021/04/01 08:46:39;;;;;;;6.23;2.77;;;23.30;67.40;;;;;;4997870;28;20473;-51
2021/04/01 08:49:24;;;;;;;7.53;2.73;;;22.80;67.70;;;;;;5030604;28;20464;-51
2021/04/01 08:52:06;;;;;;;7.27;2.03;;;23.30;72.10;;;;;;5022093;28;20502;-51
2021/04/01 08:54:41;;;;;;;11.37;2.67;;;23.40;66.10;;;;;;5022764;28;20846;-51
2021/04/01 08:57:11;;;;;;;7.77;2.07;;;23.60;66.40;;;;;;5026455;28;20475;-51
2021/04/01 08:59:47;;;;;;;9.70;2.60;;;23.60;68.90;;;;;;5023850;28;20453;-51
2021/04/01 09:02:15;;;;;;;9.40;2.47;;;23.60;66.60;;;;;;5027835;28;20506;-52
2021/04/01 09:04:48;;;;;;;5.67;2.07;;;23.50;70.50;;;;;;5030507;28;20456;-51
2021/04/01 09:07:18;;;;;;;4.40;2.43;;;24.10;67.20;;;;;;5030144;28;20480;-52
2021/04/01 09:09:50;;;;;;;5.40;2.50;;;24.50;69.00;;;;;;5030894;28;20459;-51
2021/04/01 09:12:22;;;;;;;5.97;2.57;;;24.20;69.20;;;;;;5030829;28;20543;-52
2021/04/01 09:14:57;;;;;;;4.90;2.37;;;24.50;68.30;;;;;;5030679;28;20449;-52
2021/04/01 09:17:30;;;;;;;2.40;2.03;;;24.60;64.40;;;;;;5080615;22;20577;-49
2021/04/01 09:19:58;;;;;;;12.83;1.93;;;24.20;67.10;;;;;;5052435;28;20448;-49
2021/04/01 09:22:29;;;;;;;4.50;2.20;;;23.80;67.10;;;;;;5050835;28;20452;-47
2021/04/01 09:24:57;;;;;;;7.97;2.30;;;24.00;67.50;;;;;;5050651;28;20501;-47
2021/04/01 09:27:24;;;;;;;4.53;2.10;;;23.70;67.70;;;;;;5045218;28;20472;-47
2021/04/01 09:30:01;;;;;;;7.23;2.60;;;24.30;65.00;;;;;;5050487;28;20444;-47
2021/04/01 09:32:29;;;;;;;6.83;1.97;;;24.30;63.00;;;;;;5050436;28;20455;-47
2021/04/01 09:35:01;;;;;;;6.80;1.93;;;24.40;65.50;;;;;;5050417;28;20444;-48
2021/04/01 09:37:28;;;;;;;4.07;2.20;;;24.50;62.70;;;;;;5050458;28;20594;-47
2021/04/01 09:39:55;;;;;;;4.43;2.13;;;24.70;64.30;;;;;;5050435;28;20455;-48
2021/04/01 09:42:22;;;;;;;5.80;2.03;;;24.80;66.60;;;;;;5050637;28;20534;-47
2021/04/01 09:44:51;;;;;;;5.83;2.33;;;24.80;65.20;;;;;;5045382;28;21073;-46
2021/04/01 09:47:28;;;;;;;5.07;2.10;;;24.40;64.70;;;;;;5037188;28;20475;-47
2021/04/01 09:50:02;;;;;;;5.30;2.10;;;25.00;64.40;;;;;;5035025;28;20463;-46
2021/04/01 09:52:30;;;;;;;4.50;2.27;;;25.70;59.90;;;;;;5034808;28;20825;-47
2021/04/01 09:54:58;;;;;;;7.43;2.33;;;26.00;63.40;;;;;;5034315;28;20452;-47
2021/04/01 09:57:38;;;;;;;6.63;2.80;;;26.40;63.60;;;;;;5038261;28;20476;-47
2021/04/01 10:00:18;;;;;;;5.77;2.80;;;26.10;61.90;;;;;;5034478;28;20448;-47
2021/04/01 10:02:54;;;;;;;7.20;2.23;;;25.60;66.90;;;;;;5021448;28;20445;-47
2021/04/01 10:05:23;;;;;;;4.17;1.90;;;25.60;64.60;;;;;;5014627;28;20491;-46
2021/04/01 10:07:56;;;;;;;4.37;2.20;;;25.80;62.40;;;;;;5040298;28;20454;-47
2021/04/01 10:10:34;;;;;;;4.33;2.10;;;25.50;66.90;;;;;;5054144;28;20988;-47
2021/04/01 10:13:01;;;;;;;7.93;5.00;;;25.50;58.80;;;;;;5053146;28;20514;-47
2021/04/01 10:15:31;;;;;;;8.80;5.43;;;25.20;69.10;;;;;;5040511;28;20834;-47
2021/04/01 10:18:00;;;;;;;9.20;5.90;;;23.60;71.50;;;;;;5053807;28;20825;-47
2021/04/01 10:20:27;;;;;;;10.20;6.30;;;22.90;73.70;;;;;;5053921;28;20447;-47
2021/04/01 10:23:05;;;;;;;7.07;5.00;;;23.20;72.50;;;;;;5054129;28;20455;-47
2021/04/01 10:25:38;;;;;;;8.77;6.17;;;24.10;68.50;;;;;;5053379;28;20455;-46
2021/04/01 10:28:11;;;;;;;8.47;5.70;;;24.70;68.00;;;;;;5032863;28;20454;-47
2021/04/01 10:30:39;;;;;;;8.70;5.60;;;24.90;66.70;;;;;;5032284;28;20491;-47
2021/04/01 10:33:08;;;;;;;13.77;5.63;;;25.40;64.10;;;;;;5033667;28;20494;-47
2021/04/01 10:35:37;;;;;;;9.43;5.63;;;25.30;65.80;;;;;;5040474;28;20454;-47
2021/04/01 10:38:05;;;;;;;9.70;5.03;;;24.90;65.00;;;;;;5053710;28;21011;-47
2021/04/01 10:40:33;;;;;;;9.87;4.83;;;25.40;64.30;;;;;;5053594;28;20817;-47
2021/04/01 10:43:06;;;;;;;14.40;5.57;;;25.20;67.00;;;;;;5053502;28;20443;-47
2021/04/01 10:45:37;;;;;;;8.37;4.80;;;25.40;64.40;;;;;;5052998;28;20458;-47
2021/04/01 10:48:21;;;;;;;7.60;5.60;;;24.80;66.90;;;;;;5053746;28;20455;-47
2021/04/01 10:50:50;;;;;;;15.70;6.63;;;25.30;65.50;;;;;;5036349;28;20488;-48
2021/04/01 10:53:21;;;;;;;8.97;6.27;;;24.80;66.90;;;;;;5033500;28;20234;-47
2021/04/01 10:55:49;;;;;;;9.77;5.90;;;24.10;67.70;;;;;;5034579;28;20472;-47
2021/04/01 10:58:16;;;;;;;10.20;6.10;;;23.50;68.80;;;;;;5032502;28;20464;-47
2021/04/01 11:00:51;;;;;;;12.97;6.20;;;23.60;69.10;;;;;;5032964;28;20441;-47
2021/04/01 11:03:23;;;;;;;13.00;5.70;;;23.00;70.10;;;;;;5032931;28;20444;-47
2021/04/01 11:05:51;;;;;;;11.33;5.70;;;22.90;70.70;;;;;;5032601;28;20468;-47
2021/04/01 11:08:20;;;;;;;11.70;5.80;;;22.90;70.30;;;;;;5032838;28;20455;-46
2021/04/01 11:10:57;;;;;;;11.77;6.13;;;23.00;69.70;;;;;;5032582;28;20457;-47
2021/04/01 11:13:32;;;;;;;7.30;5.83;;;23.30;69.10;;;;;;5032557;28;20903;-47
2021/04/01 11:15:59;;;;;;;10.47;5.57;;;23.30;68.60;;;;;;5051312;28;20481;-47
2021/04/01 11:18:28;;;;;;;6.63;4.83;;;23.50;68.10;;;;;;5052524;28;20513;-47
2021/04/01 11:20:56;;;;;;;8.00;5.80;;;23.30;70.10;;;;;;5052214;28;20475;-46
2021/04/01 11:23:25;;;;;;;20.93;6.67;;;23.10;67.80;;;;;;5052539;28;20539;-47
2021/04/01 11:25:54;;;;;;;10.60;5.20;;;23.40;69.20;;;;;;5051781;28;21035;-46
2021/04/01 11:28:33;;;;;;;14.43;6.03;;;23.40;69.50;;;;;;5052555;28;20448;-47
2021/04/01 11:31:00;;;;;;;9.53;6.00;;;23.00;75.30;;;;;;5052325;28;20440;-47
2021/04/01 11:33:27;;;;;;;7.93;5.70;;;23.10;70.50;;;;;;5052011;28;20537;-48
2021/04/01 11:36:04;;;;;;;10.47;5.93;;;23.40;70.80;;;;;;5051969;28;20525;-47
2021/04/01 11:38:37;;;;;;;13.43;5.70;;;23.20;68.40;;;;;;5052412;28;20447;-47
2021/04/01 11:41:07;;;;;;;10.27;5.27;;;23.20;69.90;;;;;;5052021;28;20538;-48
2021/04/01 11:43:34;;;;;;;11.83;4.70;;;23.10;74.50;;;;;;5052102;28;20454;-48
2021/04/01 11:46:19;;;;;;;18.63;8.10;;;23.00;72.70;;;;;;5051658;28;20487;-47
2021/04/01 11:48:46;;;;;;;8.90;4.93;;;22.60;72.00;;;;;;5032189;28;20445;-48
2021/04/01 11:51:18;;;;;;;7.10;3.00;;;22.70;68.70;;;;;;5048324;28;20455;-47
2021/04/01 11:53:46;;;;;;;10.23;4.97;;;22.90;63.50;;;;;;5051794;28;20970;-48
2021/04/01 11:56:12;;;;;;;7.73;4.67;;;22.70;73.30;;;;;;5051571;28;20479;-47
2021/04/01 11:58:39;;;;;;;9.80;5.30;;;22.60;70.60;;;;;;5052098;28;20458;-47
2021/04/01 12:01:10;;;;;;;9.50;4.73;;;22.70;68.50;;;;;;5052230;28;20481;-47
2021/04/01 12:03:48;;;;;;;10.60;4.43;;;22.70;76.90;;;;;;5051984;28;20483;-47
2021/04/01 12:06:16;;;;;;;6.50;4.10;;;22.80;70.80;;;;;;5051556;28;20503;-47
2021/04/01 12:08:43;;;;;;;10.17;4.40;;;22.10;72.70;;;;;;5051113;28;20455;-47
2021/04/01 12:11:09;;;;;;;9.27;4.20;;;21.60;70.60;;;;;;5051651;28;20528;-47
2021/04/01 12:13:36;;;;;;;5.57;3.57;;;21.80;71.10;;;;;;5051771;28;20488;-47
2021/04/01 12:16:03;;;;;;;8.97;3.80;;;22.30;68.30;;;;;;5051625;28;20491;-46
2021/04/01 12:18:40;;;;;;;11.17;4.23;;;22.30;68.40;;;;;;5051850;28;20497;-47
2021/04/01 12:21:07;;;;;;;7.93;3.80;;;22.70;65.90;;;;;;5051560;28;20478;-48
2021/04/01 12:23:43;;;;;;;5.60;3.00;;;23.10;64.40;;;;;;5051558;28;20440;-47
2021/04/01 12:26:10;;;;;;;7.70;3.23;;;22.90;70.00;;;;;;5051586;28;20467;-47
2021/04/01 12:28:37;;;;;;;6.60;3.00;;;23.00;65.60;;;;;;5051700;28;20456;-47
2021/04/01 12:31:03;;;;;;;5.30;3.20;;;22.90;65.00;;;;;;5037688;28;20475;-47
2021/04/01 12:33:30;;;;;;;8.93;3.70;;;23.10;65.60;;;;;;5031542;28;20480;-47
2021/04/01 12:35:58;;;;;;;7.60;3.00;;;23.20;63.80;;;;;;5042251;28;20467;-47
2021/04/01 12:38:28;;;;;;;9.63;3.60;;;23.00;67.40;;;;;;5051372;28;20933;-48
2021/04/01 12:40:56;;;;;;;7.70;3.60;;;23.10;64.90;;;;;;5051383;28;20452;-47
2021/04/01 12:43:30;;;;;;;5.63;3.30;;;23.40;63.40;;;;;;5051334;28;20446;-47
2021/04/01 12:45:57;;;;;;;14.33;3.60;;;22.90;64.20;;;;;;5043266;28;20512;-48
2021/04/01 12:48:24;;;;;;;10.33;3.17;;;23.10;65.40;;;;;;5030536;28;20452;-47
2021/04/01 12:50:53;;;;;;;12.80;4.13;;;23.40;63.20;;;;;;5036981;28;20448;-47
2021/04/01 12:53:23;;;;;;;8.53;4.00;;;23.50;63.90;;;;;;5011632;28;20485;-47
2021/04/01 12:55:51;;;;;;;13.80;4.57;;;23.40;63.80;;;;;;5035949;28;20639;-47
2021/04/01 12:58:33;;;;;;;23.80;5.27;;;23.00;65.70;;;;;;5038342;28;20455;-47
2021/04/01 13:01:10;;;;;;;6.13;3.87;;;23.10;65.50;;;;;;5051154;28;20875;-47
2021/04/01 13:03:36;;;;;;;14.80;4.60;;;23.30;64.50;;;;;;5048031;28;20495;-46
2021/04/01 13:06:06;;;;;;;19.97;5.20;;;23.10;65.20;;;;;;5030975;28;21050;-47
2021/04/01 13:11:14;;;;;;;9.10;4.33;;;23.20;66.20;;;;;;5031127;28;20745;-46
2021/04/01 13:13:42;;;;;;;9.57;4.50;;;23.40;65.90;;;;;;5030839;28;20488;-46
2021/04/01 13:16:09;;;;;;;6.67;3.30;;;23.10;66.50;;;;;;5031222;28;20476;-46
2021/04/01 13:18:36;;;;;;;7.97;4.20;;;22.90;66.30;;;;;;5050867;28;21043;-47
2021/04/01 13:21:03;;;;;;;10.87;3.80;;;23.10;65.50;;;;;;5050290;28;21188;-47
2021/04/01 13:23:43;;;;;;;8.37;4.53;;;23.10;66.20;;;;;;5048615;28;20517;-47
2021/04/01 13:26:13;;;;;;;7.20;4.07;;;23.10;64.50;;;;;;5030491;28;20480;-47
2021/04/01 13:28:43;;;;;;;9.30;4.03;;;22.90;67.60;;;;;;5030442;28;20590;-46
2021/04/01 13:31:20;;;;;;;6.33;3.87;;;22.40;71.30;;;;;;5042037;28;20456;-46
2021/04/01 13:33:52;;;;;;;7.73;4.53;;;22.30;69.60;;;;;;5050634;28;20483;-47
2021/04/01 13:36:24;;;;;;;7.83;4.30;;;22.70;67.00;;;;;;5050380;28;20476;-46
2021/04/01 13:38:52;;;;;;;6.37;4.40;;;22.80;68.30;;;;;;5050847;28;20541;-47
2021/04/01 13:41:24;;;;;;;17.20;4.70;;;22.80;68.20;;;;;;5050839;28;20448;-47
2021/04/01 13:43:55;;;;;;;7.53;4.23;;;22.80;69.50;;;;;;5042531;28;20818;-46
2021/04/01 13:46:22;;;;;;;10.07;4.43;;;22.80;68.80;;;;;;5035612;28;20874;-46
2021/04/01 13:48:51;;;;;;;10.07;4.50;;;22.80;69.00;;;;;;5042138;28;20448;-47